Time;durP1;ratioP1;P1;durP2;ratioP2;P2;SDS_P1;SDS_P2;PMS_P1;PMS_P2;Temp;Humidity;BMP_temperature;BMP_pressure;BME280_temperature;BME280_humidity;BME280_pressure;Samples;Min_cycle;Max_cycle;Signal;HPM_P1;HPM_P2
2022/07/10 00:00:47;;;;;;;6.80;3.17;;;;;;;15.52;75.57;100611.21;1755875;81;25932;-84
2022/07/10 00:03:14;;;;;;;3.87;2.42;;;;;;;15.50;75.73;100605.72;1757596;81;26376;-86
2022/07/10 00:05:40;;;;;;;3.27;2.40;;;;;;;15.48;75.88;100605.95;1757300;81;27455;-86
2022/07/10 00:08:06;;;;;;;4.22;2.25;;;;;;;15.44;76.30;100603.35;1758646;80;25886;-85
2022/07/10 00:10:33;;;;;;;4.65;2.33;;;;;;;15.38;76.33;100608.25;1757304;81;25901;-86
2022/07/10 00:13:00;;;;;;;5.17;2.55;;;;;;;15.29;76.61;100603.63;1749855;81;26051;-85
2022/07/10 00:15:26;;;;;;;4.60;2.65;;;;;;;15.24;76.73;100606.17;1746451;81;25935;-84
2022/07/10 00:17:52;;;;;;;5.55;2.90;;;;;;;15.21;77.18;100602.55;1756044;80;27971;-84
2022/07/10 00:20:19;;;;;;;3.67;2.55;;;;;;;15.20;77.01;100602.25;1754424;81;25259;-85
2022/07/10 00:22:45;;;;;;;4.50;2.67;;;;;;;15.17;77.01;100605.38;1754650;81;25785;-85
2022/07/10 00:25:13;;;;;;;6.92;2.95;;;;;;;15.17;77.02;100600.48;1747707;81;25855;-84
2022/07/10 00:27:41;;;;;;;3.70;2.55;;;;;;;15.16;77.02;100598.85;1755100;80;25940;-84
2022/07/10 00:30:09;;;;;;;3.98;3.12;;;;;;;15.17;77.19;100593.23;1753389;81;27451;-86
2022/07/10 00:32:37;;;;;;;5.72;2.62;;;;;;;15.14;77.40;100595.55;1748087;81;26086;-85
2022/07/10 00:35:05;;;;;;;4.95;2.52;;;;;;;15.12;77.24;100588.19;1752734;81;25918;-85
2022/07/10 00:37:32;;;;;;;5.20;2.95;;;;;;;15.13;77.43;100587.13;1693642;84;25760;-84
2022/07/10 00:39:59;;;;;;;4.42;2.50;;;;;;;15.11;77.54;100587.36;1698453;84;26496;-86
2022/07/10 00:42:26;;;;;;;6.87;2.47;;;;;;;15.13;77.67;100583.09;1716701;82;28286;-85
2022/07/10 00:44:52;;;;;;;4.35;2.80;;;;;;;15.12;77.66;100576.85;1720984;82;25911;-85
2022/07/10 00:47:19;;;;;;;3.45;2.50;;;;;;;15.13;78.02;100573.13;1712294;83;26340;-84
2022/07/10 00:49:47;;;;;;;5.92;2.90;;;;;;;15.12;77.98;100578.75;1699394;83;26572;-85
2022/07/10 00:52:16;;;;;;;5.20;2.52;;;;;;;15.11;78.00;100566.28;1707711;83;25912;-83
2022/07/10 00:54:46;;;;;;;4.58;2.50;;;;;;;15.11;78.20;100565.77;1720459;83;27430;-85
2022/07/10 00:57:14;;;;;;;5.60;2.57;;;;;;;15.14;78.21;100561.27;1717537;83;25722;-85
2022/07/10 00:59:41;;;;;;;5.87;2.70;;;;;;;15.16;78.30;100557.03;1685038;83;25841;-84
2022/07/10 01:02:08;;;;;;;5.30;2.58;;;;;;;15.17;78.23;100558.67;1710659;83;25846;-85
2022/07/10 01:04:34;;;;;;;5.12;2.65;;;;;;;15.18;78.58;100556.29;1711710;83;25943;-86
2022/07/10 01:07:01;;;;;;;6.28;2.65;;;;;;;15.18;78.44;100556.29;1715868;83;27478;-85
2022/07/10 01:09:33;;;;;;;4.87;2.90;;;;;;;15.19;78.61;100551.18;1710903;82;26205;-86
2022/07/10 01:12:02;;;;;;;5.92;2.65;;;;;;;15.20;78.60;100550.98;1684435;84;25880;-86
2022/07/10 01:14:30;;;;;;;5.80;2.70;;;;;;;15.22;78.67;100558.34;1717784;82;27194;-86
2022/07/10 01:16:58;;;;;;;6.00;2.62;;;;;;;15.22;78.56;100546.71;1712940;83;26292;-84
2022/07/10 01:19:25;;;;;;;3.20;2.47;;;;;;;15.24;78.60;100547.31;1712084;81;27611;-84
2022/07/10 01:21:51;;;;;;;4.20;2.42;;;;;;;15.23;78.73;100549.19;1712152;82;26493;-84
2022/07/10 01:24:18;;;;;;;5.47;2.25;;;;;;;15.22;78.69;100544.84;1688498;84;25891;-85
2022/07/10 01:26:44;;;;;;;3.98;2.58;;;;;;;15.20;78.81;100546.11;1757702;81;25793;-85
2022/07/10 01:29:11;;;;;;;4.45;2.90;;;;;;;15.17;78.73;100545.17;1748739;80;25982;-85
2022/07/10 01:31:39;;;;;;;5.00;2.90;;;;;;;15.18;79.00;100542.25;1748384;81;27457;-83
2022/07/10 01:34:11;;;;;;;4.70;2.65;;;;;;;15.16;79.11;100540.84;1716600;82;25937;-85
2022/07/10 01:36:38;;;;;;;5.90;3.30;;;;;;;15.14;79.14;100538.34;1712230;83;26550;-85
2022/07/10 01:39:05;;;;;;;6.22;3.20;;;;;;;15.13;79.22;100542.61;1720587;81;25815;-85
2022/07/10 01:41:32;;;;;;;4.97;3.00;;;;;;;15.12;79.28;100537.73;1689513;84;25812;-85
2022/07/10 01:43:58;;;;;;;6.05;3.27;;;;;;;15.10;79.48;100537.64;1720123;83;28301;-85
2022/07/10 01:46:25;;;;;;;5.75;2.77;;;;;;;15.09;79.74;100534.66;1686305;84;25783;-86
2022/07/10 01:48:53;;;;;;;7.67;2.72;;;;;;;15.07;79.76;100528.66;1685045;83;25866;-85
2022/07/10 01:51:19;;;;;;;4.35;2.67;;;;;;;15.04;79.82;100535.30;1720249;83;25843;-84
2022/07/10 01:53:46;;;;;;;4.00;2.65;;;;;;;15.06;79.82;100531.86;1720768;82;26394;-84
2022/07/10 01:56:14;;;;;;;6.22;3.37;;;;;;;15.07;79.96;100521.39;1718836;82;27448;-85
2022/07/10 01:58:41;;;;;;;5.15;3.45;;;;;;;15.07;79.95;100523.25;1719530;82;26828;-85
2022/07/10 02:01:08;;;;;;;6.08;2.77;;;;;;;15.06;79.95;100520.23;1701074;84;25832;-85
2022/07/10 02:06:19;;;;;;;5.62;2.70;;;;;;;15.07;79.95;100518.70;1713326;83;26448;-85
2022/07/10 02:08:46;;;;;;;4.92;3.12;;;;;;;15.05;80.00;100518.60;1716373;82;28889;-85
2022/07/10 02:11:12;;;;;;;5.12;2.95;;;;;;;15.04;79.92;100523.16;1687516;84;25300;-85
2022/07/10 02:13:39;;;;;;;4.42;3.12;;;;;;;15.01;80.05;100527.63;1719658;83;25638;-84
2022/07/10 02:16:06;;;;;;;6.12;3.05;;;;;;;14.95;80.21;100525.80;1718889;83;25757;-85
2022/07/10 02:18:32;;;;;;;21.20;15.00;;;;;;;14.88;79.94;100520.16;1719489;81;25812;-83
2022/07/10 02:20:59;;;;;;;12.65;8.20;;;;;;;14.84;80.09;100522.98;1715533;83;27644;-84
2022/07/10 02:23:25;;;;;;;7.03;5.00;;;;;;;14.82;80.15;100520.48;1693600;84;25285;-85
2022/07/10 02:25:51;;;;;;;7.20;5.12;;;;;;;14.78;79.91;100514.42;1720261;83;25970;-85
2022/07/10 02:28:18;;;;;;;7.33;4.20;;;;;;;14.75;79.97;100518.88;1722974;82;25765;-85
2022/07/10 02:30:44;;;;;;;5.00;3.50;;;;;;;14.71;80.03;100510.92;1723210;83;25779;-83
2022/07/10 02:33:10;;;;;;;7.42;3.95;;;;;;;14.70;80.34;100507.39;1684172;84;27500;-84
2022/07/10 02:35:37;;;;;;;6.80;3.75;;;;;;;14.65;80.16;100499.95;1710605;82;25896;-83
2022/07/10 02:38:03;;;;;;;11.40;6.62;;;;;;;14.60;79.62;100504.34;1705311;83;25707;-83
2022/07/10 02:40:29;;;;;;;8.18;6.60;;;;;;;14.54;79.66;100497.13;1711746;82;25766;-85
2022/07/10 02:42:55;;;;;;;10.55;5.20;;;;;;;14.49;79.62;100495.06;1721036;83;25956;-83
2022/07/10 02:45:22;;;;;;;9.35;4.72;;;;;;;14.45;79.70;100499.75;1719096;83;27457;-84
2022/07/10 02:47:48;;;;;;;8.03;4.42;;;;;;;14.41;80.03;100503.38;1716523;81;25913;-83
2022/07/10 02:50:14;;;;;;;6.00;3.72;;;;;;;14.36;80.14;100503.72;1685626;84;25751;-85
2022/07/10 02:52:40;;;;;;;7.37;5.05;;;;;;;14.34;80.37;100507.98;1712439;83;25740;-83
2022/07/10 02:55:08;;;;;;;5.70;4.40;;;;;;;14.33;80.80;100509.00;1712097;82;25850;-84
2022/07/10 02:57:34;;;;;;;6.85;4.10;;;;;;;14.32;80.98;100503.84;1707093;81;28265;-85
2022/07/10 03:00:00;;;;;;;5.85;3.37;;;;;;;14.33;81.04;100506.31;1716542;83;25335;-84
2022/07/10 03:02:27;;;;;;;6.12;3.98;;;;;;;14.32;81.27;100505.19;1681440;84;25768;-84
2022/07/10 03:04:53;;;;;;;7.55;3.50;;;;;;;14.31;81.84;100505.70;1712480;82;26106;-85
2022/07/10 03:07:19;;;;;;;8.83;4.58;;;;;;;14.32;82.12;100501.14;1708416;83;25852;-85
2022/07/10 03:09:46;;;;;;;5.70;4.00;;;;;;;14.29;82.19;100499.70;1700399;82;27467;-83
2022/07/10 03:12:12;;;;;;;6.12;4.00;;;;;;;14.32;82.34;100499.80;1710418;83;25905;-85
2022/07/10 03:14:38;;;;;;;4.70;3.72;;;;;;;14.35;82.40;100496.14;1712827;82;25964;-84
2022/07/10 03:17:05;;;;;;;4.72;3.55;;;;;;;14.37;82.37;100500.00;1708906;81;25851;-84
2022/07/10 03:19:33;;;;;;;6.58;3.77;;;;;;;14.39;82.71;100497.37;1681031;84;26126;-84
2022/07/10 03:21:59;;;;;;;5.53;3.72;;;;;;;14.40;82.80;100498.20;1716264;83;27439;-85
2022/07/10 03:24:25;;;;;;;6.12;4.00;;;;;;;14.40;82.95;100488.77;1706196;81;26036;-84
2022/07/10 03:26:52;;;;;;;6.95;4.45;;;;;;;14.37;83.15;100494.61;1716365;81;25840;-84
2022/07/10 03:29:18;;;;;;;7.30;4.03;;;;;;;14.35;83.26;100500.19;1711656;81;26111;-84
2022/07/10 03:31:44;;;;;;;4.65;3.85;;;;;;;14.35;83.34;100496.69;1707301;81;25824;-84
2022/07/10 03:34:10;;;;;;;7.22;3.70;;;;;;;14.34;83.46;100496.37;1677872;84;27418;-84
2022/07/10 03:36:37;;;;;;;7.53;3.87;;;;;;;14.34;83.58;100501.76;1706447;82;26503;-83
2022/07/10 03:39:03;;;;;;;6.78;4.75;;;;;;;14.33;83.58;100509.52;1708446;82;26257;-84
2022/07/10 03:41:29;;;;;;;8.85;4.37;;;;;;;14.31;83.97;100494.92;1711180;83;25804;-85
2022/07/10 03:43:58;;;;;;;6.05;4.30;;;;;;;14.28;83.77;100498.03;1707932;83;25813;-83
2022/07/10 03:46:24;;;;;;;10.20;5.08;;;;;;;14.30;84.10;100501.37;1693005;84;27488;-85
2022/07/10 03:48:51;;;;;;;8.05;4.22;;;;;;;14.31;84.00;100500.31;1701220;81;26436;-83
2022/07/10 03:51:18;;;;;;;5.97;4.95;;;;;;;14.33;84.10;100502.78;1680033;84;25815;-84
2022/07/10 03:53:44;;;;;;;5.80;4.47;;;;;;;14.33;84.02;100494.19;1716072;83;25810;-84
2022/07/10 03:57:53;;;;;;;4.53;3.62;;;;;;;14.35;84.12;100497.49;1709042;83;26520;-84
2022/07/10 03:58:39;;;;;;;6.97;4.62;;;;;;;14.41;84.19;100493.13;1716069;81;27470;-84
2022/07/10 04:01:05;;;;;;;7.53;4.15;;;;;;;14.45;84.15;100491.66;1719918;82;25824;-84
2022/07/10 04:03:32;;;;;;;6.25;4.33;;;;;;;14.46;84.08;100498.69;1719213;83;25970;-85
2022/07/10 04:05:58;;;;;;;6.97;4.10;;;;;;;14.48;84.05;100492.05;1706260;83;25840;-85
2022/07/10 04:08:24;;;;;;;10.98;4.53;;;;;;;14.52;84.11;100492.47;1685810;83;25945;-85
2022/07/10 04:10:51;;;;;;;10.88;4.72;;;;;;;14.57;84.18;100485.89;1685506;84;27470;-84
2022/07/10 04:13:17;;;;;;;6.92;4.60;;;;;;;14.61;84.27;100490.64;1717752;82;25509;-84
2022/07/10 04:15:43;;;;;;;7.47;4.15;;;;;;;14.66;84.46;100488.13;1711868;83;25448;-83
2022/07/10 04:18:09;;;;;;;10.82;4.10;;;;;;;14.73;84.43;100492.66;1712414;83;25853;-85
2022/07/10 04:20:36;;;;;;;4.50;4.08;;;;;;;14.78;84.32;100490.95;1712981;82;26054;-85
2022/07/10 04:23:02;;;;;;;8.68;4.20;;;;;;;14.83;84.44;100497.05;1721685;82;27621;-84
2022/07/10 04:25:29;;;;;;;7.35;4.50;;;;;;;14.87;84.29;100499.10;1712757;82;26023;-84
2022/07/10 04:27:55;;;;;;;7.08;4.45;;;;;;;14.90;84.11;100497.84;1717533;81;25995;-85
2022/07/10 04:30:22;;;;;;;8.70;4.25;;;;;;;14.93;84.10;100498.23;1717749;83;26235;-85
2022/07/10 04:32:48;;;;;;;9.68;4.53;;;;;;;14.99;83.97;100499.25;1688783;84;25799;-84
2022/07/10 04:35:15;;;;;;;7.20;4.33;;;;;;;15.01;83.80;100495.80;1712928;83;27445;-84
2022/07/10 04:37:41;;;;;;;9.55;4.03;;;;;;;15.06;83.58;100491.91;1711815;83;26070;-84
2022/07/10 04:40:09;;;;;;;6.42;5.05;;;;;;;15.12;83.52;100491.87;1708607;82;25848;-85
2022/07/10 04:42:36;;;;;;;7.00;4.17;;;;;;;15.14;83.55;100483.03;1715823;83;25758;-84
2022/07/10 04:45:02;;;;;;;6.10;3.95;;;;;;;15.18;83.55;100484.79;1689917;84;25977;-84
2022/07/10 04:47:29;;;;;;;6.75;3.85;;;;;;;15.19;83.04;100480.52;1720763;82;27431;-85
2022/07/10 04:49:55;;;;;;;8.95;4.53;;;;;;;15.19;82.76;100479.16;1712190;81;25932;-84
2022/07/10 04:52:21;;;;;;;7.53;4.28;;;;;;;15.21;82.88;100487.03;1704289;83;25751;-84
2022/07/10 04:54:47;;;;;;;7.80;4.10;;;;;;;15.24;82.70;100480.69;1708007;83;25857;-83
2022/07/10 04:57:14;;;;;;;5.20;3.90;;;;;;;15.26;82.76;100477.25;1712351;83;26145;-85
2022/07/10 04:59:40;;;;;;;10.50;4.15;;;;;;;15.29;82.47;100472.73;1685663;83;27513;-83
2022/07/10 05:02:08;;;;;;;5.87;4.20;;;;;;;15.35;82.78;100469.70;1707400;82;25522;-84
2022/07/10 05:04:34;;;;;;;8.28;3.62;;;;;;;15.40;82.55;100468.50;1711776;82;25788;-84
2022/07/10 05:07:00;;;;;;;10.20;4.05;;;;;;;15.43;82.30;100466.75;1710445;82;25854;-84
2022/07/10 05:09:27;;;;;;;11.38;4.00;;;;;;;15.45;82.37;100466.00;1709445;81;25989;-85
2022/07/10 05:11:53;;;;;;;9.85;4.22;;;;;;;15.50;82.64;100463.98;1689338;84;27445;-85
2022/07/10 05:14:20;;;;;;;5.87;3.12;;;;;;;15.51;81.98;100467.81;1715915;83;26513;-84
2022/07/10 05:16:46;;;;;;;7.97;3.58;;;;;;;15.55;81.98;100467.66;1720906;82;25884;-86
2022/07/10 05:19:12;;;;;;;4.62;2.90;;;;;;;15.63;82.41;100466.57;1719848;81;26574;-85
2022/07/10 05:21:39;;;;;;;8.35;3.50;;;;;;;15.65;81.69;100458.55;1669786;84;25827;-85
2022/07/10 05:24:06;;;;;;;8.55;3.60;;;;;;;15.66;81.56;100463.41;1715185;83;27567;-84
2022/07/10 05:26:32;;;;;;;7.78;2.90;;;;;;;15.69;81.55;100457.57;1689445;84;25911;-84
2022/07/10 05:28:58;;;;;;;6.97;3.12;;;;;;;15.70;81.00;100461.39;1720059;82;25955;-85
2022/07/10 05:31:24;;;;;;;4.30;2.80;;;;;;;15.75;81.12;100462.08;1710344;82;25784;-84
2022/07/10 05:33:51;;;;;;;6.45;2.77;;;;;;;15.80;80.87;100460.89;1679684;84;26529;-84
2022/07/10 05:36:17;;;;;;;4.60;2.47;;;;;;;15.83;80.67;100451.80;1707968;83;27457;-85
2022/07/10 05:38:44;;;;;;;5.10;2.10;;;;;;;15.89;80.59;100463.05;1715916;82;25999;-86
2022/07/10 05:41:10;;;;;;;5.90;2.30;;;;;;;15.92;80.12;100462.62;1713102;82;25810;-84
2022/07/10 05:43:36;;;;;;;5.22;2.58;;;;;;;15.93;79.53;100465.61;1710726;83;25814;-85
2022/07/10 05:46:03;;;;;;;5.30;1.92;;;;;;;15.94;79.52;100467.79;1707887;83;25853;-85
2022/07/10 05:48:29;;;;;;;4.47;2.75;;;;;;;15.93;79.08;100462.91;1677253;83;26883;-86
2022/07/10 05:50:56;;;;;;;10.95;2.33;;;;;;;15.94;79.03;100467.79;1716652;82;25854;-84
2022/07/10 05:53:22;;;;;;;7.35;2.20;;;;;;;15.97;79.07;100463.30;1715139;82;25854;-85
2022/07/10 05:55:49;;;;;;;10.08;2.30;;;;;;;15.99;79.04;100457.98;1678843;84;26507;-86
2022/07/10 05:58:16;;;;;;;6.08;2.00;;;;;;;16.01;79.11;100463.98;1716416;83;25831;-85
2022/07/10 06:00:44;;;;;;;6.75;2.40;;;;;;;16.06;78.95;100464.63;1712802;83;27447;-86
2022/07/10 06:03:11;;;;;;;5.75;2.85;;;;;;;16.10;78.84;100464.50;1716248;83;26002;-85
2022/07/10 06:05:38;;;;;;;4.33;1.90;;;;;;;16.12;78.76;100464.55;1719220;83;26402;-85
2022/07/10 06:08:05;;;;;;;7.15;2.27;;;;;;;16.16;78.41;100458.19;1689235;83;26550;-86
2022/07/10 06:10:31;;;;;;;7.53;2.50;;;;;;;16.18;78.08;100460.14;1712164;82;25900;-85
2022/07/10 06:12:57;;;;;;;5.20;2.75;;;;;;;16.27;78.62;100459.30;1715632;83;27455;-86
2022/07/10 06:15:23;;;;;;;6.53;2.62;;;;;;;16.33;78.34;100461.09;1703125;82;25919;-85
2022/07/10 06:17:50;;;;;;;4.45;1.90;;;;;;;16.39;78.07;100458.83;1685215;84;25734;-85
2022/07/10 06:20:16;;;;;;;6.05;2.27;;;;;;;16.48;77.58;100452.89;1712773;82;25766;-86
2022/07/10 06:22:42;;;;;;;7.60;2.02;;;;;;;16.53;77.38;100455.75;1716701;82;25759;-86
2022/07/10 06:25:11;;;;;;;4.45;1.70;;;;;;;16.61;77.17;100461.38;1696416;83;27456;-85
2022/07/10 06:27:38;;;;;;;7.70;1.67;;;;;;;16.65;77.11;100461.22;1691636;83;26054;-87
2022/07/10 06:30:05;;;;;;;4.55;2.00;;;;;;;16.69;76.19;100456.48;1712059;83;26330;-86
2022/07/10 06:32:32;;;;;;;5.37;1.55;;;;;;;16.73;75.75;100460.37;1681698;84;25797;-86
2022/07/10 06:34:58;;;;;;;4.45;1.10;;;;;;;16.73;74.89;100459.02;1686581;83;26496;-87
2022/07/10 06:37:25;;;;;;;6.28;1.70;;;;;;;16.79;75.03;100458.61;1677760;84;28263;-84
2022/07/10 06:39:51;;;;;;;3.92;1.37;;;;;;;16.84;74.18;100451.47;1720293;82;25331;-84
2022/07/10 06:42:18;;;;;;;10.20;1.92;;;;;;;16.93;74.40;100450.61;1716365;82;25813;-86
2022/07/10 06:44:46;;;;;;;5.30;1.47;;;;;;;17.04;74.11;100447.11;1711771;83;25877;-86
2022/07/10 06:50:00;;;;;;;3.02;1.00;;;;;;;17.08;73.15;100446.11;1683549;84;27467;-84
2022/07/10 06:52:26;;;;;;;5.55;1.70;;;;;;;16.98;72.70;100446.66;1716183;82;26442;-84
2022/07/10 06:54:53;;;;;;;7.05;1.47;;;;;;;16.95;72.29;100443.92;1719981;83;25296;-86
2022/07/10 06:57:20;;;;;;;3.47;1.05;;;;;;;16.97;72.28;100439.61;1685994;84;26460;-85
2022/07/10 06:59:46;;;;;;;3.20;1.42;;;;;;;17.05;72.09;100443.33;1715860;82;25866;-84
2022/07/10 07:02:13;;;;;;;5.55;1.30;;;;;;;17.20;70.37;100431.53;1706771;83;27450;-84
2022/07/10 07:04:39;;;;;;;9.63;1.60;;;;;;;17.40;71.83;100430.67;1678854;84;26267;-86
2022/07/10 07:07:05;;;;;;;3.60;1.05;;;;;;;17.68;72.95;100420.51;1717211;83;25956;-84
2022/07/10 07:09:32;;;;;;;8.20;1.65;;;;;;;17.87;71.23;100415.77;1708513;83;26589;-86
2022/07/10 07:11:58;;;;;;;6.28;1.07;;;;;;;17.82;68.27;100419.18;1695668;83;25920;-85
2022/07/10 07:14:24;;;;;;;4.08;1.10;;;;;;;17.73;68.43;100422.51;1716343;82;27452;-85
2022/07/10 07:17:09;;;;;;;3.90;1.10;;;;;;;17.57;68.57;100430.30;1714944;82;26430;-85
2022/07/10 07:19:31;;;;;;;6.33;1.13;;;;;;;17.44;68.63;100433.73;1679266;84;25938;-85
2022/07/10 07:24:44;;;;;;;3.60;1.05;;;;;;;17.09;68.88;100441.80;1712679;83;26202;-85
2022/07/10 07:27:11;;;;;;;3.02;1.17;;;;;;;16.89;69.27;100445.37;1701869;83;28287;-85
2022/07/10 07:29:38;;;;;;;5.65;1.10;;;;;;;16.73;69.56;100455.48;1715913;81;25324;-84
2022/07/10 07:32:05;;;;;;;3.22;1.05;;;;;;;16.58;69.90;100453.72;1712110;83;25780;-85
2022/07/10 07:34:31;;;;;;;6.78;1.50;;;;;;;16.50;70.40;100452.69;1682080;84;25860;-85
2022/07/10 07:36:58;;;;;;;4.15;0.88;;;;;;;16.41;70.62;100450.80;1691489;83;25730;-85
2022/07/10 07:39:25;;;;;;;8.15;1.12;;;;;;;16.35;71.03;100450.87;1717612;82;28008;-84
2022/07/10 07:41:51;;;;;;;7.22;1.10;;;;;;;16.41;71.13;100444.03;1681149;84;25916;-85
2022/07/10 07:44:17;;;;;;;4.42;1.05;;;;;;;16.61;72.54;100443.28;1707908;83;25983;-85
2022/07/10 07:46:44;;;;;;;5.85;1.25;;;;;;;16.89;72.19;100441.31;1712773;83;25830;-85
2022/07/10 07:49:11;;;;;;;6.40;1.22;;;;;;;17.13;71.00;100434.06;1720102;81;25786;-85
2022/07/10 07:51:38;;;;;;;2.25;0.90;;;;;;;17.31;70.61;100423.95;1682054;84;27440;-84
2022/07/10 07:54:04;;;;;;;5.35;1.37;;;;;;;17.61;70.92;100425.22;1709424;83;25957;-85
2022/07/10 07:56:30;;;;;;;5.25;1.20;;;;;;;17.92;71.03;100420.74;1706956;83;25745;-86
2022/07/10 07:58:57;;;;;;;4.97;1.40;;;;;;;18.16;68.47;100422.87;1711875;83;26574;-86
2022/07/10 08:01:23;;;;;;;5.15;0.93;;;;;;;18.20;66.75;100423.50;1708139;82;25801;-84
2022/07/10 08:03:49;;;;;;;4.15;0.90;;;;;;;18.07;65.27;100429.20;1681622;84;28355;-85
2022/07/10 08:06:16;;;;;;;5.85;1.20;;;;;;;17.92;65.64;100430.78;1716298;83;26446;-85
2022/07/10 08:08:42;;;;;;;1.22;0.80;;;;;;;17.77;65.59;100429.09;1716078;83;25965;-85
2022/07/10 08:11:08;;;;;;;3.65;1.57;;;;;;;17.75;65.61;100425.25;1687962;84;25995;-86
2022/07/10 08:13:34;;;;;;;2.37;0.80;;;;;;;17.91;66.72;100417.76;1695193;84;26032;-86
2022/07/10 08:16:01;;;;;;;3.52;0.90;;;;;;;18.12;65.68;100420.34;1643746;82;27422;-87
2022/07/10 08:18:29;;;;;;;3.87;1.15;;;;;;;18.33;65.13;100415.63;1653695;81;26168;-86
2022/07/10 08:20:55;;;;;;;2.20;0.80;;;;;;;18.54;65.14;100410.90;1691309;83;25868;-86
2022/07/10 08:23:22;;;;;;;4.58;0.80;;;;;;;18.71;64.27;100413.67;1680427;84;25833;-84
2022/07/10 08:25:48;;;;;;;1.52;0.80;;;;;;;18.74;62.28;100417.23;1679580;84;26677;-85
2022/07/10 08:28:14;;;;;;;1.40;0.75;;;;;;;18.81;61.89;100420.10;1708896;82;27502;-85
2022/07/10 08:30:42;;;;;;;4.55;1.05;;;;;;;18.78;60.53;100418.39;1714865;83;25982;-85
2022/07/10 08:33:09;;;;;;;3.35;0.98;;;;;;;18.70;62.05;100417.44;1716540;83;25340;-84
2022/07/10 08:35:35;;;;;;;1.57;0.70;;;;;;;18.60;60.40;100433.54;1708097;83;26427;-86
2022/07/10 08:38:02;;;;;;;2.77;0.85;;;;;;;18.48;59.90;100426.80;1686779;83;26496;-85
2022/07/10 08:40:33;;;;;;;2.42;0.72;;;;;;;18.42;60.92;100433.99;1708156;82;27456;-85
2022/07/10 08:43:00;;;;;;;4.17;0.90;;;;;;;18.41;61.93;100428.82;1680847;84;26457;-85
2022/07/10 08:45:31;;;;;;;6.60;1.30;;;;;;;18.50;62.67;100427.93;1678551;84;25848;-85
2022/07/10 08:48:02;;;;;;;3.40;0.98;;;;;;;18.66;62.70;100434.75;1715464;83;25756;-85
2022/07/10 08:50:33;;;;;;;4.05;0.90;;;;;;;18.78;60.22;100439.58;1707998;82;25757;-85
2022/07/10 08:53:13;;;;;;;4.30;1.00;;;;;;;18.68;60.92;100433.14;1711243;83;28294;-85
2022/07/10 08:55:39;;;;;;;1.73;0.70;;;;;;;18.62;61.85;100432.23;1689562;84;25937;-85
2022/07/10 08:58:09;;;;;;;1.75;0.68;;;;;;;18.62;61.74;100429.52;1711803;82;25830;-85
2022/07/10 09:00:36;;;;;;;4.03;0.72;;;;;;;18.73;60.92;100426.46;1716301;82;26507;-86
2022/07/10 09:03:03;;;;;;;4.37;0.78;;;;;;;18.86;61.11;100417.45;1784950;76;26803;-85
2022/07/10 09:05:29;;;;;;;1.92;0.60;;;;;;;19.08;62.75;100418.39;1829428;76;27441;-86
2022/07/10 09:07:56;;;;;;;3.80;0.70;;;;;;;19.26;61.06;100434.98;1828297;77;25725;-84
2022/07/10 09:10:27;;;;;;;4.08;0.90;;;;;;;18.95;57.71;100441.78;1822672;77;25684;-85
2022/07/10 09:12:57;;;;;;;3.60;0.90;;;;;;;18.48;56.69;100447.97;1843761;76;25920;-85
2022/07/10 09:15:29;;;;;;;3.77;0.60;;;;;;;18.07;57.13;100451.44;1864857;76;25872;-85
2022/07/10 09:18:06;;;;;;;4.85;0.90;;;;;;;17.78;58.42;100460.01;1856331;76;28212;-86
2022/07/10 09:20:44;;;;;;;7.20;0.90;;;;;;;17.64;60.32;100455.91;1853031;76;26149;-85
2022/07/10 09:23:22;;;;;;;4.65;1.50;;;;;;;17.59;62.52;100454.42;1828545;76;26422;-85
2022/07/10 09:25:51;;;;;;;5.08;1.10;;;;;;;17.53;63.60;100455.38;1853154;77;25807;-85
2022/07/10 09:28:20;;;;;;;10.25;1.20;;;;;;;17.54;63.87;100458.36;1850296;77;25771;-86
2022/07/10 09:30:48;;;;;;;2.30;0.78;;;;;;;17.55;64.67;100459.50;1856274;77;27481;-85
2022/07/10 09:33:29;;;;;;;6.55;1.40;;;;;;;17.54;64.49;100447.00;1849330;77;25811;-86
2022/07/10 09:36:11;;;;;;;;;;;;;;;17.53;65.50;100439.95;1821319;77;25741;-85
2022/07/10 09:38:51;;;;;;;5.08;1.07;;;;;;;17.54;65.41;100440.75;1855161;77;25812;-85
2022/07/10 09:41:27;;;;;;;3.58;1.20;;;;;;;17.61;65.76;100440.95;1817446;77;25265;-85
2022/07/10 09:44:00;;;;;;;3.60;0.85;;;;;;;17.72;64.92;100435.23;1826351;77;27458;-86
2022/07/10 09:46:40;;;;;;;4.85;1.20;;;;;;;17.76;63.96;100445.05;1858363;77;25804;-85
2022/07/10 09:49:13;;;;;;;4.35;1.10;;;;;;;17.77;64.22;100431.80;1826735;77;26474;-85
2022/07/10 09:51:45;;;;;;;5.25;1.15;;;;;;;18.01;65.09;100434.23;1847783;77;25717;-86
2022/07/10 09:54:12;;;;;;;2.83;1.05;;;;;;;18.24;62.64;100426.58;1862194;76;26060;-85
2022/07/10 09:56:47;;;;;;;3.33;0.82;;;;;;;18.35;62.60;100430.59;1861560;76;27425;-86
2022/07/10 09:59:16;;;;;;;12.30;0.90;;;;;;;18.44;61.61;100428.34;1818528;77;25710;-86
2022/07/10 10:01:51;;;;;;;2.98;0.80;;;;;;;18.39;60.24;100431.75;1854323;76;26277;-86
2022/07/10 10:04:25;;;;;;;5.33;1.12;;;;;;;18.34;60.38;100434.38;1856566;76;25761;-86
2022/07/10 10:07:00;;;;;;;5.20;1.00;;;;;;;18.33;59.11;100431.37;1854806;76;25716;-85
2022/07/10 10:09:34;;;;;;;5.67;1.02;;;;;;;18.36;59.23;100434.96;1861780;75;27612;-86
2022/07/10 10:12:12;;;;;;;4.42;1.35;;;;;;;18.39;59.11;100434.46;1855059;75;25998;-86
2022/07/10 10:14:40;;;;;;;3.05;1.00;;;;;;;18.51;61.03;100429.56;1849155;77;26309;-85
2022/07/10 10:17:08;;;;;;;2.45;0.70;;;;;;;18.60;61.18;100440.32;1853774;77;25805;-85
2022/07/10 10:22:22;;;;;;;3.15;0.90;;;;;;;18.72;59.92;100427.52;1853047;77;27644;-86
2022/07/10 10:24:49;;;;;;;5.00;1.42;;;;;;;18.93;60.96;100423.56;1829340;77;25884;-86
2022/07/10 10:27:16;;;;;;;2.22;0.80;;;;;;;19.17;56.67;100426.95;1798372;78;25350;-85
2022/07/10 10:29:43;;;;;;;2.08;0.68;;;;;;;19.29;57.23;100420.09;1859257;77;25943;-86
2022/07/10 10:32:10;;;;;;;1.87;0.80;;;;;;;19.50;56.51;100424.78;1854137;77;25780;-86
2022/07/10 10:34:48;;;;;;;3.55;0.90;;;;;;;19.70;56.80;100415.02;1825494;77;27491;-87
2022/07/10 10:37:37;;;;;;;7.20;0.98;;;;;;;19.91;56.56;100420.19;1823752;77;25955;-86
2022/07/10 10:40:06;;;;;;;2.27;0.60;;;;;;;20.06;55.50;100423.66;1856575;77;25978;-86
2022/07/10 10:42:46;;;;;;;3.33;0.90;;;;;;;20.14;55.38;100425.41;1828301;77;25761;-85
2022/07/10 10:45:37;;;;;;;3.30;0.57;;;;;;;20.29;56.82;100430.23;1844547;77;26402;-86
2022/07/10 10:48:13;;;;;;;2.75;0.20;;;;;;;20.30;52.22;100434.58;1819469;78;27451;-86
2022/07/10 10:50:44;;;;;;;0.47;0.20;;;;;;;20.13;52.45;100446.86;1841344;77;25705;-86
2022/07/10 10:53:26;;;;;;;0.65;0.30;;;;;;;19.70;51.81;100443.56;1827206;77;25730;-85
2022/07/10 10:56:15;;;;;;;2.87;0.70;;;;;;;19.32;52.31;100444.84;1853438;77;26582;-85
2022/07/10 10:58:46;;;;;;;3.37;0.30;;;;;;;19.06;53.94;100452.28;1821325;77;25741;-85
2022/07/10 11:01:26;;;;;;;1.60;0.45;;;;;;;18.87;54.46;100454.92;1848351;77;27437;-85
2022/07/10 11:04:15;;;;;;;4.12;0.65;;;;;;;18.65;55.97;100454.80;1858468;77;25256;-85
2022/07/10 11:06:51;;;;;;;2.47;0.45;;;;;;;18.58;56.41;100448.71;1825960;77;25808;-85
2022/07/10 11:09:32;;;;;;;3.80;0.78;;;;;;;18.56;56.90;100441.88;1859402;75;25777;-87
2022/07/10 11:12:08;;;;;;;3.42;0.70;;;;;;;18.65;55.88;100440.43;1856406;77;25904;-85
2022/07/10 11:14:42;;;;;;;4.22;0.78;;;;;;;18.70;55.22;100432.36;1828685;77;27436;-86
2022/07/10 11:17:09;;;;;;;2.00;0.40;;;;;;;18.74;55.95;100430.28;1841312;77;26544;-86
2022/07/10 11:19:36;;;;;;;3.60;0.93;;;;;;;18.81;56.45;100422.81;1825695;78;25315;-87
2022/07/10 11:22:20;;;;;;;2.45;1.05;;;;;;;18.85;55.67;100422.61;1855929;76;26549;-87
2022/07/10 11:25:13;;;;;;;7.33;0.90;;;;;;;18.92;56.59;100412.43;1850085;77;26062;-88
2022/07/10 11:28:11;;;;;;;;;;;;;;;19.08;57.03;100410.77;1861007;77;27449;-85
2022/07/10 11:30:54;;;;;;;2.58;0.90;;;;;;;19.35;58.29;100400.94;1819196;77;26013;-87
2022/07/10 11:33:22;;;;;;;5.67;0.80;;;;;;;19.51;57.08;100401.97;1819662;78;25337;-86
2022/07/10 11:35:52;;;;;;;4.00;0.85;;;;;;;19.51;56.51;100407.39;1816234;78;26418;-85
2022/07/10 11:38:26;;;;;;;1.37;0.60;;;;;;;19.32;54.33;100411.42;1856724;76;25930;-86
2022/07/10 11:40:55;;;;;;;3.30;0.90;;;;;;;19.12;54.02;100413.28;1853252;76;27432;-86